createdAt,value
2023-05-04T03:54:29.776Z,101478.34
2023-05-04T03:57:32.254Z,101488.78
2023-05-04T04:00:35.148Z,101479.97
2023-05-04T04:03:39.009Z,101491.09
2023-05-04T04:06:43.313Z,101504.94
2023-05-04T04:09:47.417Z,101515.63
2023-05-04T04:12:50.213Z,101528.09
2023-05-04T04:15:52.774Z,101543.38
2023-05-04T04:18:55.417Z,101556.22
2023-05-04T04:21:59.971Z,101572.56
2023-05-04T04:25:04.112Z,101572.34
2023-05-04T04:28:06.632Z,101564.44
2023-05-04T04:31:09.456Z,101574.31
2023-05-04T04:34:11.983Z,101573.59
2023-05-04T04:37:14.557Z,101571.53
2023-05-04T04:40:18.883Z,101584.53
2023-05-04T04:43:21.459Z,101582.63
2023-05-04T04:46:23.972Z,101581.16
2023-05-04T04:49:27.455Z,101591.31
2023-05-04T04:52:29.961Z,101588.50
2023-05-04T04:55:34.620Z,101588.84
2023-05-04T04:58:37.276Z,101588.34
2023-05-04T05:01:39.776Z,101587.16
2023-05-04T05:04:42.363Z,101589.28
2023-05-04T05:07:44.915Z,101587.00
2023-05-04T05:10:48.757Z,101578.16
2023-05-04T05:13:51.546Z,101578.88
2023-05-04T05:16:54.554Z,101583.00
2023-05-04T05:19:57.110Z,101579.59
2023-05-04T05:22:59.747Z,101579.09
2023-05-04T05:26:03.696Z,101583.41
2023-05-04T05:29:06.228Z,101576.00
2023-05-04T05:32:08.729Z,101570.09
2023-05-04T05:35:12.489Z,101574.13
2023-05-04T05:38:16.218Z,101580.88
2023-05-04T05:41:20.210Z,101576.41
2023-05-04T05:44:22.708Z,101582.38
2023-05-04T05:47:25.310Z,101579.06
2023-05-04T05:50:27.803Z,101583.72
2023-05-04T05:53:30.420Z,101575.47
2023-05-04T05:56:34.272Z,101578.41
2023-05-04T05:59:36.807Z,101580.88
2023-05-04T06:02:39.368Z,101584.97
2023-05-04T06:05:41.956Z,101599.16
2023-05-04T06:08:44.953Z,101596.06
2023-05-04T06:11:48.799Z,101596.84
2023-05-04T06:14:51.553Z,101604.66
2023-05-04T06:17:54.111Z,101598.06
2023-05-04T06:20:59.742Z,101597.22
2023-05-04T06:24:02.597Z,101605.13
2023-05-04T06:27:06.808Z,101593.13
2023-05-04T06:30:10.579Z,101594.31
2023-05-04T06:33:13.414Z,101596.16
2023-05-04T06:36:16.307Z,101580.25
2023-05-04T06:39:19.256Z,101579.81
2023-05-04T06:42:23.121Z,101571.19
2023-05-04T06:45:25.625Z,101572.72
2023-05-04T06:48:28.144Z,101571.81
2023-05-04T06:51:30.724Z,101576.31
2023-05-04T06:54:33.264Z,101570.53
2023-05-04T06:57:37.107Z,101577.97
2023-05-04T07:00:40.132Z,101580.00
2023-05-04T07:03:42.761Z,101580.72
2023-05-04T07:06:45.263Z,101569.22
2023-05-04T07:09:48.268Z,101578.13
2023-05-04T07:12:52.134Z,101578.56
2023-05-04T07:15:54.798Z,101580.38
2023-05-04T07:18:57.531Z,101574.34
2023-05-04T07:22:00.815Z,101577.34
2023-05-04T07:25:03.466Z,101572.22
2023-05-04T07:28:07.392Z,101568.00
2023-05-04T07:31:10.079Z,101561.63
2023-05-04T07:34:12.579Z,101569.34
2023-05-04T07:37:15.906Z,101573.06
2023-05-04T07:40:18.692Z,101567.97
2023-05-04T07:43:22.857Z,101566.78
2023-05-04T07:46:25.391Z,101564.47
2023-05-04T07:49:28.226Z,101565.47
2023-05-04T07:52:30.852Z,101554.75
2023-05-04T07:55:33.373Z,101551.44
2023-05-04T07:58:37.203Z,101555.88
2023-05-04T08:01:41.365Z,101556.38
2023-05-04T08:04:45.783Z,101551.88
2023-05-04T08:07:48.280Z,101559.56
2023-05-04T08:10:50.867Z,101550.88
2023-05-04T08:13:54.691Z,101542.75
2023-05-04T08:16:57.262Z,101535.13
2023-05-04T08:19:59.749Z,101533.19
2023-05-04T08:23:02.741Z,101534.69
2023-05-04T08:26:06.078Z,101540.47
2023-05-04T08:29:10.916Z,101542.00
2023-05-04T08:32:13.629Z,101547.53
2023-05-04T08:35:16.373Z,101545.03
2023-05-04T08:38:18.878Z,101554.91
2023-05-04T08:41:22.053Z,101545.72
2023-05-04T08:44:26.035Z,101544.13
2023-05-04T08:47:29.798Z,101545.59
2023-05-04T08:50:34.305Z,101541.44
2023-05-04T08:53:38.891Z,101534.78
2023-05-04T08:56:42.795Z,101542.81
2023-05-04T08:59:50.520Z,101533.44
2023-05-04T09:02:53.977Z,101545.44
2023-05-04T09:05:57.814Z,101550.88
2023-05-04T09:09:00.450Z,101555.16
2023-05-04T09:12:02.982Z,101554.53
2023-05-04T09:15:17.410Z,101553.50
2023-05-04T09:18:20.299Z,101550.03
2023-05-04T09:21:29.827Z,101547.78
2023-05-04T09:24:32.963Z,101535.56
2023-05-04T09:27:35.619Z,101529.56
2023-05-04T09:30:39.517Z,101518.78
2023-05-04T09:33:42.850Z,101511.38
2023-05-04T09:36:45.439Z,101500.19
2023-05-04T09:39:55.555Z,101507.94
2023-05-04T09:42:58.535Z,101498.69
2023-05-04T09:46:03.245Z,101491.00
2023-05-04T09:49:05.964Z,101497.41
2023-05-04T09:52:08.516Z,101487.69
2023-05-04T09:55:14.469Z,101484.50
2023-05-04T09:58:18.477Z,101483.03
2023-05-04T10:01:23.119Z,101479.13
2023-05-04T10:04:26.610Z,101483.03
2023-05-04T10:07:31.863Z,101476.31
2023-05-04T10:10:35.902Z,101472.84
2023-05-04T10:13:39.142Z,101469.91
2023-05-04T10:16:51.607Z,101474.72
2023-05-04T10:20:08.251Z,101459.66
2023-05-04T10:23:39.373Z,101460.69
2023-05-04T10:27:03.250Z,101465.50
2023-05-04T10:30:07.641Z,101450.22
2023-05-04T10:33:13.260Z,101436.53
2023-05-04T10:36:15.933Z,101430.75
2023-05-04T10:39:20.412Z,101432.34
2023-05-04T10:42:23.287Z,101427.75
2023-05-04T10:45:35.611Z,101425.88
2023-05-04T10:48:39.475Z,101415.44
2023-05-04T10:51:48.992Z,101416.50
2023-05-04T10:55:00.050Z,101414.03
2023-05-04T10:58:02.880Z,101408.44
2023-05-04T11:01:12.751Z,101400.66
2023-05-04T11:04:25.466Z,101401.97
2023-05-04T11:07:38.637Z,101403.47
2023-05-04T11:10:41.833Z,101395.78
2023-05-04T11:13:47.191Z,101393.41
2023-05-04T11:16:49.817Z,101385.28
2023-05-04T11:19:53.839Z,101378.53
2023-05-04T11:22:56.510Z,101377.34
2023-05-04T11:25:59.121Z,101372.53
2023-05-04T11:29:01.749Z,101373.44
2023-05-04T11:32:04.351Z,101372.84
2023-05-04T11:35:11.528Z,101358.16
2023-05-04T11:38:20.118Z,101357.19
2023-05-04T11:41:27.096Z,101346.91
2023-05-04T11:44:30.172Z,101355.84
2023-05-04T11:47:32.746Z,101350.84
2023-05-04T11:50:37.007Z,101359.13
2023-05-04T11:53:40.670Z,101363.31
2023-05-04T11:56:43.488Z,101352.78
2023-05-04T11:59:49.493Z,101352.94
2023-05-04T12:02:56.715Z,101363.53
2023-05-04T12:06:01.948Z,101363.41
2023-05-04T12:09:06.170Z,101361.63
2023-05-04T12:12:08.834Z,101357.09
2023-05-04T12:15:11.838Z,101357.38
2023-05-04T12:18:29.455Z,101355.72
2023-05-04T12:21:34.326Z,101354.50
2023-05-04T12:24:36.968Z,101347.41
2023-05-04T12:27:42.572Z,101345.25
2023-05-04T12:30:45.119Z,101345.91
2023-05-04T12:33:47.605Z,101342.06
2023-05-04T12:36:52.292Z,101337.06
2023-05-04T12:39:54.798Z,101332.09
2023-05-04T12:42:57.298Z,101319.75
2023-05-04T12:46:00.279Z,101319.88
2023-05-04T12:49:03.025Z,101312.09
2023-05-04T12:52:06.917Z,101307.25
2023-05-04T12:55:09.844Z,101308.41
2023-05-04T12:58:12.813Z,101311.91
2023-05-04T13:01:15.511Z,101306.88
2023-05-04T13:04:18.137Z,101320.88
2023-05-04T13:07:21.958Z,101313.16
2023-05-04T13:10:25.062Z,101317.28
2023-05-04T13:13:29.368Z,101316.44
2023-05-04T13:16:32.032Z,101318.13
2023-05-04T13:19:34.597Z,101303.84
2023-05-04T13:22:38.529Z,101310.13
2023-05-04T13:25:41.085Z,101304.31
2023-05-04T13:28:43.602Z,101293.72
2023-05-04T13:31:46.128Z,101296.38
2023-05-04T13:34:48.796Z,101296.91
2023-05-04T13:37:52.652Z,101289.59
2023-05-04T13:40:55.220Z,101287.31
2023-05-04T13:43:57.719Z,101271.22
2023-05-04T13:47:00.356Z,101274.59
2023-05-04T13:50:02.976Z,101261.56
2023-05-04T13:53:06.856Z,101255.66
2023-05-04T13:56:09.541Z,101264.31
2023-05-04T13:59:12.006Z,101248.72
2023-05-04T14:02:14.520Z,101254.81
2023-05-04T14:05:17.063Z,101247.47
2023-05-04T14:08:20.885Z,101242.63
2023-05-04T14:11:23.515Z,101241.09
2023-05-04T14:14:26.113Z,101235.03
2023-05-04T14:17:28.663Z,101230.34
2023-05-04T14:20:31.217Z,101222.41
2023-05-04T14:23:35.038Z,101221.34
2023-05-04T14:26:37.960Z,101215.22
2023-05-04T14:29:40.446Z,101213.50
2023-05-04T14:32:42.982Z,101209.84
2023-05-04T14:35:47.927Z,101209.69
2023-05-04T14:38:52.130Z,101211.91
2023-05-04T14:41:56.835Z,101197.28
2023-05-04T14:44:59.690Z,101193.28
2023-05-04T14:48:03.090Z,101190.44
2023-05-04T14:51:05.802Z,101190.66
2023-05-04T14:54:09.639Z,101187.53
2023-05-04T14:57:12.624Z,101187.91
2023-05-04T15:00:17.255Z,101186.81
2023-05-04T15:03:19.865Z,101174.50
2023-05-04T15:06:22.431Z,101169.09
2023-05-04T15:09:26.412Z,101174.53
2023-05-04T15:12:28.985Z,101160.66
2023-05-04T15:15:31.532Z,101171.88
2023-05-04T15:18:34.010Z,101166.06
2023-05-04T15:21:36.533Z,101160.47
2023-05-04T15:24:40.455Z,101171.56
2023-05-04T15:27:44.403Z,101163.84
2023-05-04T15:30:46.891Z,101159.97
2023-05-04T15:33:49.655Z,101159.59
2023-05-04T15:36:52.551Z,101153.84
2023-05-04T15:39:57.861Z,101145.44
2023-05-04T15:43:01.089Z,101137.66
2023-05-04T15:46:03.560Z,101134.88
2023-05-04T15:49:06.225Z,101135.00
2023-05-04T15:52:10.442Z,101133.28
2023-05-04T15:55:25.475Z,101136.72
2023-05-04T15:58:28.987Z,101136.56
2023-05-04T16:01:32.137Z,101139.28
2023-05-04T16:04:34.695Z,101130.06
2023-05-04T16:07:37.233Z,101133.19
2023-05-04T16:10:41.049Z,101132.91
2023-05-04T16:13:43.537Z,101135.16
2023-05-04T16:16:46.080Z,101137.19
2023-05-04T16:19:48.819Z,101134.91
2023-05-04T16:22:51.316Z,101127.16
2023-05-04T16:25:55.268Z,101123.44
2023-05-04T16:28:57.800Z,101116.19
2023-05-04T16:32:01.661Z,101112.63
2023-05-04T16:35:04.190Z,101100.13
2023-05-04T16:38:06.970Z,101093.50
2023-05-04T16:41:11.002Z,101090.69
2023-05-04T16:44:13.659Z,101095.22
2023-05-04T16:47:16.258Z,101097.75
2023-05-04T16:50:19.367Z,101096.81
2023-05-04T16:53:21.971Z,101101.41
2023-05-04T16:56:25.775Z,101103.06
2023-05-04T16:59:29.264Z,101102.84
2023-05-04T17:02:32.000Z,101113.97
2023-05-04T17:05:35.003Z,101105.41
2023-05-04T17:08:37.534Z,101100.09
2023-05-04T17:11:41.397Z,101100.41
2023-05-04T17:14:43.963Z,101095.38
2023-05-04T17:17:46.773Z,101093.69
2023-05-04T17:20:49.455Z,101093.84
2023-05-04T17:23:51.954Z,101095.09
2023-05-04T17:26:55.768Z,101100.06
2023-05-04T17:29:58.277Z,101101.28
2023-05-04T17:33:00.846Z,101106.53
2023-05-04T17:36:03.973Z,101096.25
2023-05-04T17:39:06.511Z,101100.53
2023-05-04T17:42:10.748Z,101110.19
2023-05-04T17:45:13.397Z,101114.19
2023-05-04T17:48:16.423Z,101116.91
2023-05-04T17:51:18.914Z,101107.75
2023-05-04T17:54:21.390Z,101117.91
2023-05-04T17:57:25.227Z,101110.28
2023-05-04T18:00:27.971Z,101112.28
2023-05-04T18:03:30.801Z,101112.16
2023-05-04T18:06:33.606Z,101120.97
2023-05-04T18:09:36.501Z,101116.97
2023-05-04T18:12:40.901Z,101128.97
2023-05-04T18:15:43.496Z,101130.22
2023-05-04T18:18:46.011Z,101134.22
2023-05-04T18:21:48.512Z,101127.59
2023-05-04T18:24:50.996Z,101123.53
2023-05-04T18:27:54.873Z,101121.16
2023-05-04T18:30:57.407Z,101122.78
2023-05-04T18:34:02.705Z,101122.16
2023-05-04T18:37:05.210Z,101132.13
2023-05-04T18:40:09.903Z,101143.84
2023-05-04T18:43:13.976Z,101149.59
2023-05-04T18:46:16.538Z,101152.72
2023-05-04T18:49:19.062Z,101149.41
2023-05-04T18:52:22.515Z,101162.06
2023-05-04T18:55:25.239Z,101169.69
2023-05-04T18:58:29.158Z,101172.44
2023-05-04T19:01:31.691Z,101177.72
2023-05-04T19:04:34.270Z,101170.66
2023-05-04T19:07:37.014Z,101170.84
2023-05-04T19:10:39.501Z,101165.00
2023-05-04T19:13:43.551Z,101168.22
2023-05-04T19:16:46.361Z,101161.25
2023-05-04T19:19:48.932Z,101164.91
2023-05-04T19:22:51.526Z,101164.09
2023-05-04T19:25:54.083Z,101174.97
2023-05-04T19:28:57.927Z,101174.97
2023-05-04T19:32:05.545Z,101174.38
2023-05-04T19:35:15.792Z,101175.50
2023-05-04T19:38:18.282Z,101174.56
2023-05-04T19:41:21.214Z,101172.47
2023-05-04T19:44:25.051Z,101167.63
2023-05-04T19:47:29.092Z,101169.84
2023-05-04T19:50:32.081Z,101168.97
2023-05-04T19:53:34.602Z,101168.78
2023-05-04T19:56:37.104Z,101159.91
2023-05-04T19:59:41.123Z,101160.97
2023-05-04T20:02:43.840Z,101166.47
2023-05-04T20:05:46.599Z,101175.34
2023-05-04T20:08:49.203Z,101165.97
2023-05-04T20:11:51.683Z,101168.59
2023-05-04T20:14:55.517Z,101165.47
2023-05-04T20:17:58.280Z,101166.16
2023-05-04T20:21:00.812Z,101170.81
2023-05-04T20:24:04.125Z,101170.81
